Terminal Aerodrome Forecast
Issued by NWS

Home | Current Version | Previous Version | Text Only | Print | Product List | Glossary On
Versions: 1 2 3 4 5 6 7 8 9 10 11 12 13 14 15 16
000
FTUS46 KMTR 291133
TAFOAK
TAF
KOAK 291133Z 2912/3018 24012KT P6SM OVC010
     FM291600 25008KT P6SM FEW015
     FM292100 29012KT P6SM FEW015
     FM300000 28015KT P6SM SKC
     FM300500 28008KT P6SM BKN015
     FM300700 26008KT P6SM OVC012=

USA.gov is the U.S. government's official web portal to all federal, state and local government web resources and services.